createdAt,value
2022-12-14T00:00:22.206Z,66.71
2022-12-14T00:01:31.928Z,66.65
2022-12-14T00:02:40.966Z,66.47
2022-12-14T00:03:50.887Z,66.13
2022-12-14T00:05:00.263Z,66.11
2022-12-14T00:06:16.120Z,65.77
2022-12-14T00:07:25.196Z,66.17
2022-12-14T00:08:38.284Z,66.66
2022-12-14T00:09:47.988Z,66.58
2022-12-14T00:10:59.189Z,66.29
2022-12-14T00:12:09.333Z,66.02
2022-12-14T00:13:18.555Z,66.23
2022-12-14T00:14:27.467Z,65.76
2022-12-14T00:15:38.061Z,66.04
2022-12-14T00:16:48.545Z,66.05
2022-12-14T00:17:57.490Z,65.92
2022-12-14T00:19:07.824Z,66.24
2022-12-14T00:20:17.951Z,66.16
2022-12-14T00:21:28.489Z,66.14
2022-12-14T00:22:37.554Z,66.54
2022-12-14T00:23:47.709Z,66.57
2022-12-14T00:24:56.993Z,66.49
2022-12-14T00:27:31.699Z,65.85
2022-12-14T00:28:43.663Z,66.18
2022-12-14T00:29:53.266Z,66.26
2022-12-14T00:31:01.828Z,66.63
2022-12-14T00:32:11.609Z,66.52
2022-12-14T00:33:21.255Z,66.25
2022-12-14T00:35:47.051Z,66.97
2022-12-14T00:36:56.521Z,67.13
2022-12-14T00:38:05.030Z,67.09
2022-12-14T00:39:14.929Z,66.79
2022-12-14T00:40:25.696Z,66.72
2022-12-14T00:41:35.608Z,66.75
2022-12-14T00:42:45.084Z,66.84
2022-12-14T00:43:53.839Z,66.98
2022-12-14T00:45:04.701Z,67.11
2022-12-14T00:46:13.894Z,67.09
2022-12-14T00:47:24.042Z,67.04
2022-12-14T00:48:34.486Z,66.94
2022-12-14T00:49:43.938Z,66.84
2022-12-14T00:50:54.186Z,66.79
2022-12-14T00:52:03.201Z,67.22
2022-12-14T00:53:11.845Z,67.30
2022-12-14T00:55:43.632Z,66.89
2022-12-14T00:56:52.475Z,66.67
2022-12-14T00:58:00.980Z,66.63
2022-12-14T00:59:10.106Z,66.78
2022-12-14T01:00:18.815Z,67.03
2022-12-14T01:01:30.894Z,67.04
2022-12-14T01:02:40.674Z,66.78
2022-12-14T01:03:50.674Z,67.03
2022-12-14T01:04:59.730Z,67.09
2022-12-14T01:06:17.321Z,67.11
2022-12-14T01:07:25.919Z,66.57
2022-12-14T01:08:37.811Z,66.82
2022-12-14T01:09:46.762Z,66.91
2022-12-14T01:10:57.277Z,67.04
2022-12-14T01:12:08.138Z,67.18
2022-12-14T01:13:16.830Z,67.32
2022-12-14T01:14:27.619Z,67.36
2022-12-14T01:15:37.776Z,67.43
2022-12-14T01:16:47.870Z,67.17
2022-12-14T01:17:56.843Z,67.63
2022-12-14T01:19:07.621Z,67.79
2022-12-14T01:20:18.173Z,67.99
2022-12-14T01:21:28.290Z,67.78
2022-12-14T01:22:38.353Z,67.87
2022-12-14T01:25:06.791Z,67.88
2022-12-14T01:26:18.062Z,68.31
2022-12-14T01:27:26.905Z,68.04
2022-12-14T01:28:35.835Z,67.90
2022-12-14T01:29:44.438Z,67.91
2022-12-14T01:30:54.212Z,68.23
2022-12-14T01:32:03.243Z,68.59
2022-12-14T01:33:12.394Z,68.71
2022-12-14T01:34:22.131Z,68.55
2022-12-14T01:36:48.940Z,68.21
2022-12-14T01:37:57.474Z,68.14
2022-12-14T01:39:10.287Z,68.41
2022-12-14T01:40:19.310Z,68.59
2022-12-14T01:42:47.240Z,68.51
2022-12-14T01:44:02.448Z,68.71
2022-12-14T01:48:10.232Z,68.68
2022-12-14T01:49:23.454Z,68.05
2022-12-14T01:50:37.201Z,68.17
2022-12-14T01:54:34.745Z,68.48
2022-12-14T01:55:50.991Z,67.46
2022-12-14T01:57:04.117Z,67.90
2022-12-14T04:54:09.070Z,66.10
2022-12-14T04:55:28.337Z,65.76
2022-12-14T04:56:41.677Z,65.60
2022-12-14T04:59:13.808Z,64.00
2022-12-14T05:00:23.991Z,63.61
2022-12-14T05:02:12.286Z,63.36
2022-12-14T05:04:56.910Z,63.50
2022-12-14T05:06:29.025Z,63.44
2022-12-14T05:10:48.791Z,62.99
2022-12-14T05:13:46.276Z,62.46
2022-12-14T05:15:12.691Z,62.78
2022-12-14T05:16:24.262Z,62.77
2022-12-14T05:17:39.409Z,62.90
2022-12-14T05:18:50.540Z,62.33
2022-12-14T05:19:59.583Z,62.59
2022-12-14T05:21:09.405Z,62.95
2022-12-14T05:22:18.637Z,62.98
2022-12-14T05:23:29.103Z,63.07
2022-12-14T05:24:38.505Z,62.71
2022-12-14T05:25:49.104Z,62.68
2022-12-14T05:26:58.802Z,63.00
2022-12-14T05:28:10.614Z,62.88
2022-12-14T05:29:20.410Z,63.33
2022-12-14T05:30:30.989Z,63.03
2022-12-14T05:31:40.131Z,63.04
2022-12-14T05:32:50.184Z,63.18
2022-12-14T05:33:58.887Z,63.41
2022-12-14T05:36:25.676Z,63.25
2022-12-14T05:38:49.548Z,63.16
2022-12-14T05:39:58.813Z,63.51
2022-12-14T05:41:08.510Z,63.88
2022-12-14T05:42:17.127Z,63.91
2022-12-14T05:43:26.510Z,63.99
2022-12-14T05:44:35.356Z,64.21
2022-12-14T05:45:44.442Z,64.09
2022-12-14T05:46:53.550Z,63.98
2022-12-14T05:48:03.173Z,64.43
2022-12-14T05:50:27.281Z,64.18
2022-12-14T05:51:35.798Z,64.52
2022-12-14T05:52:44.841Z,64.50
2022-12-14T05:53:54.945Z,64.28
2022-12-14T05:55:05.177Z,64.44
2022-12-14T05:56:15.857Z,64.43
2022-12-14T05:57:25.400Z,64.55
2022-12-14T05:58:35.561Z,64.73
2022-12-14T05:59:44.599Z,64.94
2022-12-14T06:00:54.325Z,65.15
2022-12-14T06:02:03.481Z,64.97
2022-12-14T06:03:13.595Z,65.17
2022-12-14T06:04:23.490Z,64.89
2022-12-14T06:05:32.437Z,65.30
2022-12-14T06:06:42.168Z,64.59
2022-12-14T06:07:51.432Z,64.80
2022-12-14T06:09:01.037Z,64.60
2022-12-14T06:10:09.594Z,64.35
2022-12-14T06:11:21.711Z,64.48
2022-12-14T06:12:30.750Z,64.62
2022-12-14T06:13:40.709Z,64.99
2022-12-14T06:14:49.352Z,65.42
2022-12-14T06:17:31.627Z,64.77
2022-12-14T06:18:42.737Z,64.45
2022-12-14T06:19:51.354Z,63.92
2022-12-14T06:21:00.599Z,63.96
2022-12-14T06:22:09.430Z,64.20
2022-12-14T06:23:18.004Z,64.20
2022-12-14T06:24:27.656Z,64.40
2022-12-14T06:25:36.636Z,63.56
2022-12-14T06:26:46.678Z,63.76
2022-12-14T06:29:15.211Z,63.34
2022-12-14T06:31:39.595Z,63.58
2022-12-14T06:32:49.203Z,63.41
2022-12-14T06:34:00.622Z,63.32
2022-12-14T06:35:09.628Z,63.08
2022-12-14T06:36:28.168Z,63.18
2022-12-14T06:37:36.832Z,63.16
2022-12-14T06:38:45.878Z,63.26
2022-12-14T06:39:54.760Z,63.26
2022-12-14T06:41:07.937Z,63.45
2022-12-14T06:42:16.498Z,63.74
2022-12-14T06:43:27.128Z,62.58
2022-12-14T06:44:37.198Z,62.88
2022-12-14T06:45:46.599Z,63.34
2022-12-14T06:46:56.394Z,62.50
2022-12-14T06:49:21.905Z,62.35
2022-12-14T06:50:31.651Z,62.00
2022-12-14T06:51:41.362Z,62.36
2022-12-14T06:52:51.436Z,62.39
2022-12-14T06:54:00.088Z,62.56
2022-12-14T06:55:10.165Z,62.34
2022-12-14T06:56:21.111Z,61.96
2022-12-14T06:57:29.670Z,62.06
2022-12-14T06:58:39.098Z,62.30
2022-12-14T06:59:48.229Z,62.25
2022-12-14T07:02:20.471Z,62.50
2022-12-14T07:03:31.639Z,62.69
2022-12-14T07:04:41.594Z,63.29
2022-12-14T07:05:53.916Z,62.47
2022-12-14T07:07:03.003Z,62.89
2022-12-14T07:08:11.653Z,63.09
2022-12-14T07:09:20.570Z,61.87
2022-12-14T07:10:30.533Z,61.97
2022-12-14T07:11:39.474Z,62.37
2022-12-14T07:12:48.399Z,62.12
2022-12-14T07:15:21.107Z,62.00
2022-12-14T07:16:29.928Z,62.03
2022-12-14T07:17:38.968Z,61.71
2022-12-14T07:18:48.693Z,61.89
2022-12-14T07:19:58.404Z,62.40
2022-12-14T07:21:09.732Z,62.39
2022-12-14T07:22:19.392Z,62.02
2022-12-14T07:23:31.057Z,61.33
2022-12-14T07:26:14.863Z,61.31
2022-12-14T07:27:25.414Z,60.97
2022-12-14T07:28:36.506Z,61.68
2022-12-14T07:31:24.653Z,61.18
2022-12-14T07:33:49.268Z,62.03
2022-12-14T07:34:58.917Z,61.18
2022-12-14T07:36:13.474Z,61.35
2022-12-14T07:37:22.582Z,61.54
2022-12-14T07:38:32.917Z,62.03
2022-12-14T07:39:42.103Z,62.32
2022-12-14T07:42:06.770Z,61.70
2022-12-14T07:44:30.226Z,61.49
2022-12-14T07:45:38.808Z,61.27
2022-12-14T07:46:49.401Z,61.87
2022-12-14T07:47:58.115Z,61.16
2022-12-14T07:49:07.335Z,61.54
2022-12-14T07:50:17.726Z,61.69
2022-12-14T07:52:45.249Z,61.73
2022-12-14T07:55:09.565Z,61.80
2022-12-14T07:56:22.634Z,60.75
2022-12-14T07:57:31.697Z,60.57
2022-12-14T07:58:41.544Z,60.65
2022-12-14T07:59:55.689Z,61.00
2022-12-14T08:01:14.036Z,61.06
2022-12-14T08:03:39.821Z,61.54
2022-12-14T08:04:49.007Z,61.45
2022-12-14T08:05:58.460Z,61.34
2022-12-14T08:07:07.401Z,61.30
2022-12-14T08:08:17.646Z,61.56
2022-12-14T08:09:26.331Z,61.15
2022-12-14T08:10:40.127Z,61.56
2022-12-14T08:11:52.895Z,60.95
2022-12-14T08:13:03.261Z,61.27
2022-12-14T08:15:36.535Z,61.02
2022-12-14T08:16:47.654Z,61.29
2022-12-14T08:17:56.487Z,61.67
2022-12-14T08:20:21.635Z,60.35
2022-12-14T08:21:30.806Z,60.80
2022-12-14T08:22:40.686Z,60.79
2022-12-14T08:23:53.009Z,61.26
2022-12-14T08:25:02.617Z,61.80
2022-12-14T08:26:12.663Z,61.67
2022-12-14T08:28:36.653Z,60.75
2022-12-14T08:29:45.206Z,60.64
2022-12-14T08:30:55.369Z,60.51
2022-12-14T08:32:06.702Z,60.59
2022-12-14T08:33:15.536Z,60.79
2022-12-14T08:34:24.311Z,60.69
2022-12-14T08:35:34.614Z,60.21
2022-12-14T08:36:44.756Z,60.11
2022-12-14T08:37:53.510Z,60.11
2022-12-14T08:39:09.031Z,60.29
2022-12-14T08:40:17.851Z,60.26
2022-12-14T08:41:28.047Z,60.19
2022-12-14T08:42:37.016Z,60.35
2022-12-14T08:43:53.019Z,60.08
2022-12-14T08:45:01.708Z,59.54
2022-12-14T08:46:10.940Z,59.48
2022-12-14T08:47:20.766Z,59.45
2022-12-14T08:48:30.611Z,59.24
2022-12-14T08:49:41.009Z,59.47
2022-12-14T08:50:50.233Z,59.49
2022-12-14T08:51:59.051Z,59.14
2022-12-14T08:53:07.971Z,59.75
2022-12-14T08:55:53.047Z,59.44
2022-12-14T08:57:04.505Z,59.75
2022-12-14T08:58:13.578Z,59.41
2022-12-14T08:59:52.282Z,58.58
2022-12-14T09:00:33.558Z,59.03
2022-12-14T09:01:42.740Z,58.96
2022-12-14T09:02:52.053Z,58.07
2022-12-14T09:04:05.375Z,58.45
2022-12-14T09:05:14.205Z,58.57
2022-12-14T09:06:28.723Z,58.37
2022-12-14T09:07:37.661Z,58.43
2022-12-14T09:08:47.221Z,58.41
2022-12-14T09:09:58.254Z,58.71
2022-12-14T09:11:12.024Z,58.52
2022-12-14T09:12:20.667Z,58.38
2022-12-14T09:13:30.237Z,58.17
2022-12-14T09:14:40.613Z,58.54
2022-12-14T09:17:21.943Z,58.23
2022-12-14T09:18:32.425Z,58.20
2022-12-14T09:19:41.610Z,58.16
2022-12-14T09:20:53.665Z,58.88
2022-12-14T09:22:02.442Z,58.53
2022-12-14T09:23:11.313Z,58.01
2022-12-14T09:24:20.275Z,58.14
2022-12-14T09:25:29.056Z,58.57
2022-12-14T09:26:38.115Z,58.92
2022-12-14T09:27:48.245Z,58.69
2022-12-14T09:30:15.770Z,58.46
2022-12-14T09:31:27.051Z,58.01
2022-12-14T09:32:35.633Z,58.05
2022-12-14T09:33:44.381Z,58.08
2022-12-14T09:34:52.888Z,58.22
2022-12-14T09:36:10.767Z,58.41
2022-12-14T09:37:19.284Z,58.36
2022-12-14T09:38:30.400Z,58.32
2022-12-14T09:39:39.119Z,57.45
2022-12-14T09:40:52.193Z,57.85
2022-12-14T09:42:04.894Z,57.29
2022-12-14T09:44:45.227Z,56.39
2022-12-14T09:45:58.698Z,56.20
2022-12-14T09:48:37.514Z,56.87
2022-12-14T09:51:22.026Z,56.28
2022-12-14T09:54:02.092Z,56.29
2022-12-14T09:55:27.438Z,56.47
2022-12-14T09:57:50.858Z,56.22
2022-12-14T09:59:02.415Z,56.07
2022-12-14T10:03:21.489Z,56.24
2022-12-14T10:04:38.600Z,56.39
2022-12-14T10:05:58.792Z,57.10
2022-12-14T10:08:54.417Z,56.04
2022-12-14T10:11:46.163Z,56.17
2022-12-14T10:15:09.248Z,54.86
2022-12-14T10:17:55.624Z,55.31
2022-12-14T10:19:36.004Z,55.06
2022-12-14T10:20:52.785Z,55.23
2022-12-14T10:22:15.161Z,54.69
2022-12-14T10:23:26.107Z,54.32
2022-12-14T10:24:38.870Z,54.97
2022-12-14T10:25:52.094Z,54.60
2022-12-14T10:27:02.963Z,54.75
2022-12-14T10:29:39.654Z,54.92
2022-12-14T10:30:53.530Z,54.51
2022-12-14T10:33:53.563Z,53.59
2022-12-14T15:10:37.012Z,57.35
2022-12-14T15:11:51.992Z,57.17
2022-12-14T15:13:07.673Z,57.20
2022-12-14T15:14:48.288Z,56.82
2022-12-14T15:15:55.587Z,56.85
2022-12-14T15:17:22.095Z,56.13
2022-12-14T15:18:31.990Z,56.29
2022-12-14T15:19:58.637Z,56.13
2022-12-14T15:21:15.878Z,56.41
2022-12-14T15:23:53.317Z,56.35
2022-12-14T15:26:24.435Z,56.25
2022-12-14T15:27:36.683Z,56.07
2022-12-14T15:28:50.535Z,56.01
2022-12-14T15:31:39.748Z,55.64
2022-12-14T15:34:17.033Z,55.65
2022-12-14T15:36:45.624Z,55.58
2022-12-14T15:39:07.100Z,55.27
2022-12-14T15:41:35.961Z,55.00
2022-12-14T15:42:55.539Z,54.35
2022-12-14T15:45:32.734Z,54.98
2022-12-14T15:46:42.163Z,55.15
2022-12-14T15:47:51.109Z,55.50
2022-12-14T15:50:26.972Z,55.23
2022-12-14T15:51:39.923Z,55.20
2022-12-14T15:52:52.230Z,55.16
2022-12-14T15:54:04.339Z,55.05
2022-12-14T15:55:35.505Z,55.38
2022-12-14T15:58:16.406Z,55.52
2022-12-14T15:59:34.227Z,55.54
2022-12-14T16:02:26.845Z,55.33
2022-12-14T16:03:40.392Z,55.06
2022-12-14T16:04:50.482Z,55.16
2022-12-14T16:06:00.508Z,55.52
2022-12-14T16:07:25.466Z,55.55
2022-12-14T16:08:38.728Z,55.06
2022-12-14T16:11:12.501Z,55.08
2022-12-14T16:12:27.322Z,55.14
2022-12-14T16:15:29.175Z,55.14
2022-12-14T16:16:38.316Z,55.23
2022-12-14T16:17:48.292Z,55.12
2022-12-14T16:19:20.377Z,55.13
2022-12-14T16:20:19.055Z,55.31
2022-12-14T16:23:07.296Z,55.42
2022-12-14T16:26:05.441Z,55.68
2022-12-14T16:28:36.402Z,55.91
2022-12-14T16:31:14.288Z,55.90
2022-12-14T16:32:23.521Z,56.03
2022-12-14T16:33:37.090Z,55.98
2022-12-14T16:36:33.146Z,56.18
2022-12-14T16:37:42.657Z,56.33
2022-12-14T16:39:16.689Z,56.61
2022-12-14T16:40:38.337Z,56.69
2022-12-14T16:41:58.647Z,57.06
2022-12-14T16:43:26.432Z,57.38
2022-12-14T16:44:40.121Z,57.31
2022-12-14T16:46:07.708Z,57.57
2022-12-14T16:47:35.901Z,57.96
2022-12-14T16:48:50.079Z,58.10
2022-12-14T16:52:05.794Z,58.17
2022-12-14T16:57:07.040Z,57.67
2022-12-14T16:59:48.802Z,57.65
2022-12-14T17:01:03.260Z,57.69
2022-12-14T17:02:37.594Z,57.68
2022-12-14T17:05:19.145Z,58.23
2022-12-14T17:07:50.342Z,58.27
2022-12-14T17:09:00.096Z,58.31
2022-12-14T17:11:32.137Z,58.31
2022-12-14T17:12:48.636Z,58.34
2022-12-14T17:15:19.135Z,58.28
2022-12-14T17:16:28.735Z,57.94
2022-12-14T17:17:37.555Z,57.88
2022-12-14T17:20:11.954Z,57.86
2022-12-14T17:22:50.575Z,58.25
2022-12-14T17:24:03.784Z,58.18
2022-12-14T17:25:13.512Z,58.44
2022-12-14T17:27:41.480Z,58.83
2022-12-14T17:28:51.607Z,59.08
2022-12-14T17:30:01.866Z,59.13
2022-12-14T17:31:20.942Z,59.41
2022-12-14T17:32:31.665Z,59.62
2022-12-14T17:34:56.579Z,59.87
2022-12-14T17:36:08.213Z,59.75
2022-12-14T17:37:22.460Z,59.87
2022-12-14T17:39:47.799Z,59.70
2022-12-14T17:40:56.995Z,59.89
2022-12-14T17:42:06.405Z,59.74
2022-12-14T17:43:24.479Z,59.56
2022-12-14T17:44:33.654Z,59.52
2022-12-14T17:45:43.533Z,59.42
2022-12-14T17:46:52.806Z,59.44
2022-12-14T17:48:01.847Z,59.57
2022-12-14T17:49:15.175Z,59.37
2022-12-14T17:51:43.486Z,59.48
2022-12-14T17:52:52.835Z,59.46
2022-12-14T17:54:02.538Z,59.43
2022-12-14T17:55:23.297Z,59.63
2022-12-14T17:56:32.022Z,59.55
2022-12-14T17:57:41.695Z,59.77
2022-12-14T17:58:51.393Z,59.61
2022-12-14T18:00:19.355Z,59.65
2022-12-14T18:01:28.668Z,59.63
2022-12-14T18:02:41.461Z,59.74
2022-12-14T18:03:50.921Z,59.94
2022-12-14T18:04:59.670Z,60.15
2022-12-14T18:06:12.339Z,60.27
